Beersheba, Israel
Current Conditions -  °F | °C
As of 4:20 AM on Saturday 25 Oct 2014 (Local Time) from LLBG Reporting Station
Clear Clear  
Wind Chill: 59°   Ceiling: Unl
Heat Index: 59°   Visibility: 6mi
Dew Point: 48°   Wind: 3mph
Humidity: 67%   Direction: NA
Pressure: 30"   Gusts: NA
Location:  31.25°N, 34.8°E
Report Text: LLBG 250120Z VRB03KT CAVOK 15/09 Q1016 NOSIG
Loading
Personal Weather Stations






























Interactive Weather Map New forecast layout! Learn more

10-Day Weather Forecast

Advertisements
Track Severe Weather on mobile